createdAt,value
2022-08-04T00:01:51.596Z,24.98
2022-08-04T00:04:51.316Z,24.96
2022-08-04T00:07:44.143Z,24.84
2022-08-04T00:10:11.200Z,24.93
2022-08-04T00:12:42.586Z,24.92
2022-08-04T00:15:15.004Z,24.77
2022-08-04T00:17:49.924Z,24.92
2022-08-04T00:20:18.867Z,24.75
2022-08-04T00:22:46.516Z,24.71
2022-08-04T00:25:13.338Z,24.59
2022-08-04T00:27:40.100Z,24.53
2022-08-04T00:30:07.540Z,24.79
2022-08-04T00:32:34.928Z,24.70
2022-08-04T00:35:01.915Z,24.72
2022-08-04T00:37:28.994Z,24.63
2022-08-04T00:39:56.414Z,24.58
2022-08-04T00:42:23.334Z,24.65
2022-08-04T00:45:00.003Z,24.78
2022-08-04T00:47:30.036Z,24.46
2022-08-04T00:49:56.985Z,24.49
2022-08-04T00:52:42.877Z,24.45
2022-08-04T00:55:12.930Z,24.50
2022-08-04T00:57:49.309Z,24.23
2022-08-04T01:00:18.586Z,24.29
2022-08-04T01:02:51.661Z,24.34
2022-08-04T01:05:22.067Z,24.23
2022-08-04T01:07:58.178Z,24.28
2022-08-04T01:10:29.088Z,24.36
2022-08-04T01:13:12.815Z,24.32
2022-08-04T01:15:56.534Z,24.24
2022-08-04T01:18:37.409Z,24.07
2022-08-04T01:21:23.667Z,23.89
2022-08-04T01:23:51.079Z,23.94
2022-08-04T01:26:42.705Z,23.91
2022-08-04T01:29:18.569Z,23.78
2022-08-04T01:31:54.928Z,23.91
2022-08-04T01:34:22.876Z,23.74
2022-08-04T01:37:00.799Z,23.83
2022-08-04T01:39:43.226Z,23.81
2022-08-04T01:42:10.924Z,23.80
2022-08-04T01:44:40.925Z,23.70
2022-08-04T01:47:08.099Z,23.71
2022-08-04T01:49:40.932Z,23.71
2022-08-04T01:52:08.883Z,23.74
2022-08-04T01:54:38.127Z,23.83
2022-08-04T01:57:38.347Z,23.74
2022-08-04T01:59:52.472Z,23.80
2022-08-04T02:02:26.898Z,23.73
2022-08-04T02:04:53.943Z,23.67
2022-08-04T02:07:27.548Z,23.67
2022-08-04T02:10:14.171Z,23.65
2022-08-04T02:12:56.435Z,23.56
2022-08-04T02:15:26.245Z,23.60
2022-08-04T02:18:00.591Z,23.49
2022-08-04T02:20:34.985Z,23.46
2022-08-04T02:23:04.377Z,23.59
2022-08-04T02:25:33.674Z,23.70
2022-08-04T02:28:01.084Z,23.45
2022-08-04T02:30:34.502Z,23.46
2022-08-04T02:33:02.639Z,23.47
2022-08-04T02:35:29.605Z,23.44
2022-08-04T02:38:01.751Z,23.47
2022-08-04T02:40:29.117Z,23.45
2022-08-04T02:42:55.899Z,23.46
2022-08-04T02:45:22.595Z,23.55
2022-08-04T02:48:23.589Z,23.34
2022-08-04T02:50:36.559Z,23.41
2022-08-04T02:53:03.951Z,23.25
2022-08-04T02:55:36.791Z,23.15
2022-08-04T02:58:04.534Z,23.20
2022-08-04T03:00:32.417Z,23.16
2022-08-04T03:03:06.256Z,23.24
2022-08-04T03:06:00.563Z,23.33
2022-08-04T03:08:25.613Z,23.19
2022-08-04T03:11:06.009Z,23.14
2022-08-04T03:13:36.990Z,23.28
2022-08-04T03:16:03.995Z,23.19
2022-08-04T03:18:50.134Z,23.16
2022-08-04T03:21:17.172Z,23.05
2022-08-04T03:23:54.878Z,22.80
2022-08-04T03:26:41.150Z,22.96
2022-08-04T03:29:35.932Z,22.94
2022-08-04T03:32:04.206Z,23.18
2022-08-04T03:34:41.320Z,23.08
2022-08-04T03:37:08.991Z,23.03
2022-08-04T03:39:51.047Z,23.18
2022-08-04T03:42:24.770Z,23.07
2022-08-04T03:45:23.177Z,23.07
2022-08-04T03:47:51.111Z,23.02
2022-08-04T03:50:27.626Z,22.94
2022-08-04T03:53:13.696Z,22.99
2022-08-04T03:56:05.937Z,23.12
2022-08-04T03:58:55.092Z,22.92
2022-08-04T04:02:00.948Z,22.97
2022-08-04T04:04:33.718Z,23.09
2022-08-04T04:07:03.531Z,23.04
2022-08-04T04:09:56.874Z,23.26
2022-08-04T04:12:39.514Z,23.17
2022-08-04T04:15:12.680Z,23.32
2022-08-04T04:17:47.166Z,23.48
2022-08-04T04:20:26.926Z,23.63
2022-08-04T04:23:12.558Z,23.44
2022-08-04T04:25:51.074Z,23.52
2022-08-04T04:28:46.088Z,23.63
2022-08-04T04:31:24.698Z,23.69
2022-08-04T04:34:23.932Z,23.70
2022-08-04T04:36:53.851Z,23.77
2022-08-04T04:39:26.609Z,23.87
2022-08-04T04:41:57.982Z,23.86
2022-08-04T04:44:31.013Z,23.81
2022-08-04T04:47:19.216Z,23.91
2022-08-04T04:50:15.859Z,24.03
2022-08-04T04:52:48.046Z,24.15
2022-08-04T04:55:21.728Z,24.25
2022-08-04T04:57:54.627Z,24.22
2022-08-04T05:00:23.680Z,24.27
2022-08-04T05:03:07.293Z,24.31
2022-08-04T05:05:38.587Z,24.45
2022-08-04T05:08:43.576Z,24.50
2022-08-04T05:11:20.212Z,24.51
2022-08-04T05:14:38.861Z,24.59
2022-08-04T05:16:36.522Z,24.74
2022-08-04T05:19:09.773Z,24.73
2022-08-04T05:21:36.470Z,24.82
2022-08-04T05:24:05.257Z,24.87
2022-08-04T05:26:33.065Z,24.91
2022-08-04T05:29:02.801Z,24.94
2022-08-04T05:31:32.268Z,24.91
2022-08-04T05:34:00.984Z,25.17
2022-08-04T05:36:41.066Z,25.36
2022-08-04T05:39:14.509Z,25.36
2022-08-04T05:41:45.369Z,25.49
2022-08-04T05:44:18.896Z,25.20
2022-08-04T05:46:54.142Z,25.43
2022-08-04T05:49:22.427Z,25.50
2022-08-04T05:51:49.173Z,25.55
2022-08-04T05:54:17.228Z,25.42
2022-08-04T05:56:44.388Z,25.73
2022-08-04T05:59:11.244Z,25.92
2022-08-04T06:01:56.227Z,25.78
2022-08-04T06:04:43.178Z,25.95
2022-08-04T06:07:11.356Z,26.13
2022-08-04T06:09:38.371Z,25.97
2022-08-04T06:12:07.416Z,26.16
2022-08-04T06:14:44.057Z,26.00
2022-08-04T06:18:32.051Z,26.21
2022-08-04T06:20:17.640Z,26.25
2022-08-04T06:22:48.552Z,26.49
2022-08-04T06:25:16.199Z,26.59
2022-08-04T06:27:42.930Z,26.63
2022-08-04T06:30:14.409Z,26.46
2022-08-04T06:32:48.848Z,26.81
2022-08-04T06:35:17.787Z,26.87
2022-08-04T06:37:45.865Z,27.23
2022-08-04T06:40:29.715Z,27.29
2022-08-04T06:42:59.358Z,27.61
2022-08-04T06:45:26.153Z,28.03
2022-08-04T06:47:52.915Z,28.27
2022-08-04T06:51:25.681Z,28.88
2022-08-04T06:53:06.731Z,29.16
2022-08-04T06:55:33.739Z,29.57
2022-08-04T06:58:03.032Z,29.69
2022-08-04T07:00:30.895Z,30.02
2022-08-04T07:02:58.046Z,30.32
2022-08-04T07:05:24.807Z,30.79
2022-08-04T07:07:56.526Z,30.64
2022-08-04T07:10:26.252Z,31.03
2022-08-04T07:12:54.106Z,31.19
2022-08-04T07:15:21.040Z,31.12
2022-08-04T07:17:50.253Z,31.46
2022-08-04T07:20:34.672Z,31.78
2022-08-04T07:23:06.648Z,32.01
2022-08-04T07:26:00.537Z,32.15
2022-08-04T07:28:21.342Z,32.31
2022-08-04T07:30:48.595Z,32.55
2022-08-04T07:33:18.550Z,32.59
2022-08-04T07:36:05.578Z,32.62
2022-08-04T07:38:33.025Z,32.97
2022-08-04T07:41:00.172Z,32.96
2022-08-04T07:43:27.677Z,33.20
2022-08-04T07:45:54.391Z,33.15
2022-08-04T07:48:23.239Z,33.14
2022-08-04T07:50:50.498Z,33.62
2022-08-04T07:53:54.398Z,33.76
2022-08-04T07:56:04.519Z,33.49
2022-08-04T07:58:31.166Z,33.84
2022-08-04T08:00:58.176Z,34.20
2022-08-04T08:03:25.578Z,34.09
2022-08-04T08:05:54.565Z,34.32
2022-08-04T08:08:40.055Z,34.23
2022-08-04T08:11:07.306Z,34.20
2022-08-04T08:13:34.179Z,34.48
2022-08-04T08:16:01.350Z,34.21
2022-08-04T08:18:28.043Z,34.70
2022-08-04T08:20:55.459Z,34.55
2022-08-04T08:23:24.823Z,34.74
2022-08-04T08:25:51.800Z,34.85
2022-08-04T08:28:18.542Z,34.93
2022-08-04T08:30:45.499Z,34.85
2022-08-04T08:33:19.686Z,35.10
2022-08-04T08:35:52.917Z,35.21
2022-08-04T08:38:25.160Z,34.74
2022-08-04T08:41:18.693Z,35.02
2022-08-04T08:44:05.905Z,35.07
2022-08-04T08:46:49.890Z,35.29
2022-08-04T08:50:00.236Z,34.65
2022-08-04T08:52:13.356Z,35.15
2022-08-04T08:54:53.059Z,35.85
2022-08-04T08:57:32.305Z,35.40
2022-08-04T09:00:10.410Z,35.57
2022-08-04T09:03:04.631Z,35.57
2022-08-04T09:05:50.527Z,35.75
2022-08-04T09:08:36.275Z,35.74
2022-08-04T09:11:02.955Z,35.73
2022-08-04T09:13:30.763Z,35.90
2022-08-04T09:15:59.951Z,36.15
2022-08-04T09:18:34.737Z,35.89
2022-08-04T09:21:25.113Z,35.92
2022-08-04T09:23:59.351Z,36.25
2022-08-04T09:26:26.313Z,36.00
2022-08-04T09:29:01.926Z,36.52
2022-08-04T09:31:51.771Z,36.38
2022-08-04T09:34:26.912Z,36.55
2022-08-04T09:36:56.993Z,35.98
2022-08-04T09:39:29.700Z,35.95
2022-08-04T09:42:10.100Z,35.90
2022-08-04T09:44:53.097Z,35.86
2022-08-04T09:47:39.329Z,36.28
2022-08-04T09:50:09.356Z,35.96
2022-08-04T09:52:56.554Z,36.43
2022-08-04T09:55:53.529Z,36.19
2022-08-04T09:58:24.644Z,36.62
2022-08-04T10:00:55.602Z,36.79
2022-08-04T10:03:23.628Z,36.75
2022-08-04T10:05:53.360Z,36.95
2022-08-04T10:08:30.563Z,36.68
2022-08-04T10:11:17.102Z,36.98
2022-08-04T10:13:59.201Z,36.53
2022-08-04T10:16:38.400Z,36.79
2022-08-04T10:19:15.718Z,37.21
2022-08-04T10:21:58.962Z,37.02
2022-08-04T10:24:47.752Z,36.71
2022-08-04T10:27:23.002Z,36.35
2022-08-04T10:29:49.828Z,36.67
2022-08-04T10:32:36.954Z,36.52
2022-08-04T10:35:10.151Z,35.90
2022-08-04T10:37:56.548Z,35.58
2022-08-04T10:40:40.972Z,36.05
2022-08-04T10:43:21.988Z,36.41
2022-08-04T10:45:51.252Z,36.38
2022-08-04T10:48:36.806Z,36.57
2022-08-04T10:51:03.538Z,36.87
2022-08-04T10:53:31.072Z,36.96
2022-08-04T10:56:18.034Z,37.20
2022-08-04T10:58:51.152Z,37.44
2022-08-04T11:01:59.439Z,37.51
2022-08-04T11:04:28.038Z,37.83
2022-08-04T11:06:55.489Z,37.56
2022-08-04T11:09:22.474Z,36.85
2022-08-04T11:12:02.360Z,36.71
2022-08-04T11:14:32.349Z,37.21
2022-08-04T11:16:59.536Z,36.84
2022-08-04T11:19:49.959Z,36.91
2022-08-04T11:22:22.741Z,37.04
2022-08-04T11:24:52.228Z,36.85
2022-08-04T11:27:26.211Z,37.26
2022-08-04T11:30:04.837Z,37.22
2022-08-04T11:32:36.418Z,37.69
2022-08-04T11:35:04.626Z,37.49
2022-08-04T11:37:47.920Z,37.42
2022-08-04T11:40:25.473Z,37.75
2022-08-04T11:42:54.004Z,37.45
2022-08-04T11:45:24.813Z,37.17
2022-08-04T11:47:53.964Z,37.44
2022-08-04T11:50:22.639Z,37.68
2022-08-04T11:52:49.886Z,37.25
2022-08-04T11:55:17.376Z,37.15
2022-08-04T11:57:45.123Z,35.90
2022-08-04T12:00:20.982Z,36.91
2022-08-04T12:03:06.881Z,36.57
2022-08-04T12:05:46.763Z,36.26
2022-08-04T12:08:20.192Z,36.21
2022-08-04T12:10:53.134Z,36.16
2022-08-04T12:13:40.756Z,36.49
2022-08-04T12:16:10.915Z,37.04
2022-08-04T12:18:39.536Z,37.31
2022-08-04T12:21:11.662Z,37.51
2022-08-04T12:23:43.752Z,36.86
2022-08-04T12:26:15.504Z,36.57
2022-08-04T12:29:09.003Z,36.59
2022-08-04T12:31:31.478Z,36.69
2022-08-04T12:34:04.281Z,37.02
2022-08-04T12:36:55.552Z,37.25
2022-08-04T12:39:23.325Z,36.75
2022-08-04T12:42:05.048Z,37.41
2022-08-04T12:44:37.387Z,37.59
2022-08-04T12:47:27.071Z,37.20
2022-08-04T12:50:03.723Z,36.88
2022-08-04T12:55:18.781Z,36.79
2022-08-04T12:57:45.584Z,37.13
2022-08-04T13:00:12.583Z,37.29
2022-08-04T13:02:42.490Z,37.44
2022-08-04T13:05:09.538Z,35.53
2022-08-04T13:07:54.002Z,35.84
2022-08-04T13:10:23.410Z,36.74
2022-08-04T13:12:59.406Z,36.00
2022-08-04T13:15:28.730Z,35.86
2022-08-04T13:17:57.204Z,36.22
2022-08-04T13:20:30.025Z,36.74
2022-08-04T13:23:08.900Z,35.88
2022-08-04T13:26:43.703Z,36.13
2022-08-04T13:28:30.293Z,35.96
2022-08-04T13:30:59.594Z,35.60
2022-08-04T13:33:30.290Z,35.92
2022-08-04T13:35:59.339Z,35.81
2022-08-04T13:38:26.231Z,35.26
2022-08-04T13:40:54.299Z,35.37
2022-08-04T13:44:16.151Z,35.31
2022-08-04T13:46:34.214Z,35.57
2022-08-04T13:49:28.249Z,35.53
2022-08-04T13:52:00.265Z,36.05
2022-08-04T13:54:44.027Z,36.43
2022-08-04T13:57:24.111Z,36.33
2022-08-04T13:59:55.797Z,36.53
2022-08-04T14:02:42.743Z,36.63
2022-08-04T14:05:18.716Z,36.64
2022-08-04T14:07:47.015Z,36.74
2022-08-04T14:10:14.231Z,36.84
2022-08-04T14:12:47.640Z,36.62
2022-08-04T14:16:01.373Z,36.70
2022-08-04T14:18:24.772Z,36.62
2022-08-04T14:21:11.392Z,34.41
2022-08-04T14:23:47.378Z,34.88
2022-08-04T14:26:34.076Z,35.42
2022-08-04T14:29:28.283Z,35.50
2022-08-04T14:32:10.661Z,35.53
2022-08-04T14:34:41.261Z,35.70
2022-08-04T14:37:18.587Z,35.66
2022-08-04T14:40:07.963Z,35.59
2022-08-04T14:42:41.637Z,35.52
2022-08-04T14:45:08.620Z,35.47
2022-08-04T14:47:52.643Z,34.93
2022-08-04T14:50:20.119Z,34.62
2022-08-04T14:52:47.136Z,34.67
2022-08-04T14:55:21.618Z,35.45
2022-08-04T14:58:35.108Z,35.25
2022-08-04T15:00:39.436Z,35.38
2022-08-04T15:03:10.175Z,35.70
2022-08-04T15:06:01.544Z,35.46
2022-08-04T15:08:24.615Z,35.48
2022-08-04T15:10:58.928Z,35.37
2022-08-04T15:13:26.418Z,35.04
2022-08-04T15:16:07.355Z,35.12
2022-08-04T15:18:39.089Z,35.04
2022-08-04T15:21:06.161Z,35.16
2022-08-04T15:23:38.556Z,35.12
2022-08-04T15:26:09.509Z,35.49
2022-08-04T15:28:36.627Z,35.32
2022-08-04T15:31:03.817Z,34.74
2022-08-04T15:33:33.748Z,35.03
2022-08-04T15:36:15.608Z,35.30
2022-08-04T15:38:45.653Z,35.34
2022-08-04T15:41:17.239Z,35.28
2022-08-04T15:43:55.782Z,35.37
2022-08-04T15:46:43.054Z,35.16
2022-08-04T15:49:18.464Z,35.15
2022-08-04T15:51:45.245Z,35.01
2022-08-04T15:54:21.097Z,35.07
2022-08-04T15:57:01.629Z,35.24
2022-08-04T15:59:51.095Z,35.30
2022-08-04T16:02:36.326Z,35.28
2022-08-04T16:05:17.614Z,35.07
2022-08-04T16:07:56.879Z,35.29
2022-08-04T16:10:35.349Z,35.15
2022-08-04T16:13:13.847Z,35.05
2022-08-04T16:15:42.181Z,35.21
2022-08-04T16:18:25.340Z,34.97
2022-08-04T16:20:57.817Z,34.81
2022-08-04T16:23:54.103Z,35.22
2022-08-04T16:26:37.747Z,35.21
2022-08-04T16:29:24.634Z,35.10
2022-08-04T16:32:11.071Z,34.93
2022-08-04T16:34:54.486Z,35.08
2022-08-04T16:37:24.146Z,34.91
2022-08-04T16:39:51.942Z,34.90
2022-08-04T16:42:28.301Z,34.90
2022-08-04T16:44:58.990Z,34.64
2022-08-04T16:47:44.250Z,34.77
2022-08-04T16:50:11.456Z,34.75
2022-08-04T16:52:47.859Z,34.64
2022-08-04T16:55:15.420Z,34.66
2022-08-04T16:57:42.888Z,34.43
2022-08-04T17:00:09.967Z,34.53
2022-08-04T17:02:37.112Z,34.47
2022-08-04T17:05:07.238Z,34.53
2022-08-04T17:08:02.203Z,34.18
2022-08-04T17:10:36.518Z,34.37
2022-08-04T17:14:02.757Z,34.36
2022-08-04T17:16:11.662Z,34.45
2022-08-04T17:18:41.216Z,34.46
2022-08-04T17:21:12.459Z,34.35
2022-08-04T17:24:13.106Z,34.29
2022-08-04T17:26:40.053Z,34.26
2022-08-04T17:29:08.256Z,34.11
2022-08-04T17:31:36.426Z,34.09
2022-08-04T17:34:14.128Z,34.07
2022-08-04T17:36:43.904Z,34.06
2022-08-04T17:39:17.248Z,34.03
2022-08-04T17:41:56.079Z,33.91
2022-08-04T17:44:37.420Z,33.94
2022-08-04T17:47:12.625Z,33.98
2022-08-04T17:49:52.651Z,33.90
2022-08-04T17:52:35.908Z,33.92
2022-08-04T17:55:16.304Z,33.86
2022-08-04T17:57:52.270Z,33.69
2022-08-04T18:00:20.019Z,33.55
2022-08-04T18:02:53.647Z,33.56
2022-08-04T18:05:27.095Z,33.48
2022-08-04T18:08:37.720Z,33.19
2022-08-04T18:11:02.055Z,33.05
2022-08-04T18:13:29.516Z,32.94
2022-08-04T18:16:02.595Z,32.83
2022-08-04T18:18:29.999Z,32.73
2022-08-04T18:20:59.858Z,32.64
2022-08-04T18:23:31.350Z,32.48
2022-08-04T18:26:01.787Z,32.38
2022-08-04T18:28:30.723Z,32.42
2022-08-04T18:31:00.667Z,32.12
2022-08-04T18:33:39.894Z,32.02
2022-08-04T18:36:35.231Z,31.91
2022-08-04T18:38:59.072Z,32.00
2022-08-04T18:41:27.221Z,31.82
2022-08-04T18:43:57.324Z,31.72
2022-08-04T18:46:26.999Z,31.59
2022-08-04T18:48:54.368Z,31.46
2022-08-04T18:51:24.935Z,31.47
2022-08-04T18:53:58.563Z,31.39
2022-08-04T18:56:32.405Z,31.22
2022-08-04T18:59:00.677Z,31.21
2022-08-04T19:01:29.674Z,31.16
2022-08-04T19:04:33.362Z,31.03
2022-08-04T19:07:23.309Z,30.88
2022-08-04T19:09:52.153Z,30.97
2022-08-04T19:12:26.332Z,30.82
2022-08-04T19:14:58.044Z,30.68
2022-08-04T19:20:24.173Z,30.40
2022-08-04T19:24:28.950Z,30.53
2022-08-04T19:25:59.606Z,30.51
2022-08-04T19:28:28.157Z,30.51
2022-08-04T19:30:57.568Z,30.26
2022-08-04T19:33:25.287Z,30.31
2022-08-04T19:35:52.545Z,30.13
2022-08-04T19:38:20.854Z,29.82
2022-08-04T19:40:52.624Z,29.98
2022-08-04T19:43:23.061Z,29.90
2022-08-04T19:45:55.146Z,30.00
2022-08-04T19:48:26.333Z,29.72
2022-08-04T19:50:55.856Z,29.74
2022-08-04T19:53:36.957Z,29.70
2022-08-04T19:56:05.420Z,29.64
2022-08-04T19:58:32.711Z,29.45
2022-08-04T20:00:59.461Z,29.36
2022-08-04T20:04:08.839Z,29.38
2022-08-04T20:06:14.373Z,29.41
2022-08-04T20:08:48.057Z,29.18
2022-08-04T20:11:17.275Z,29.18
2022-08-04T20:13:54.652Z,29.15
2022-08-04T20:16:29.481Z,29.12
2022-08-04T20:19:02.750Z,29.06
2022-08-04T20:21:54.315Z,28.97
2022-08-04T20:24:39.170Z,28.93
2022-08-04T20:27:15.055Z,28.96
2022-08-04T20:29:50.466Z,29.06
2022-08-04T20:32:21.839Z,28.96
2022-08-04T20:34:50.381Z,28.86
2022-08-04T20:37:18.623Z,28.79
2022-08-04T20:39:54.943Z,28.71
2022-08-04T20:42:27.519Z,28.60
2022-08-04T20:45:01.284Z,28.53
2022-08-04T20:47:35.078Z,28.47
2022-08-04T20:50:04.422Z,28.52
2022-08-04T20:52:33.207Z,28.59
2022-08-04T20:55:04.005Z,28.44
2022-08-04T20:57:47.995Z,28.36
2022-08-04T21:00:15.847Z,28.38
2022-08-04T21:02:44.400Z,28.48
2022-08-04T21:05:11.304Z,28.45
2022-08-04T21:07:41.833Z,28.12
2022-08-04T21:10:15.741Z,28.15
2022-08-04T21:12:43.786Z,28.14
2022-08-04T21:15:24.603Z,28.10
2022-08-04T21:17:58.244Z,27.80
2022-08-04T21:20:31.561Z,27.75
2022-08-04T21:23:02.327Z,27.62
2022-08-04T21:25:30.833Z,27.54
2022-08-04T21:28:04.096Z,27.68
2022-08-04T21:30:37.041Z,27.61
2022-08-04T21:33:18.626Z,27.63
2022-08-04T21:35:46.858Z,27.67
2022-08-04T21:38:17.663Z,27.45
2022-08-04T21:40:54.720Z,27.41
2022-08-04T21:43:23.753Z,27.54
2022-08-04T21:45:55.956Z,27.32
2022-08-04T21:48:23.406Z,27.34
2022-08-04T21:50:54.659Z,27.23
2022-08-04T21:53:21.429Z,27.29
2022-08-04T21:56:05.429Z,27.23
2022-08-04T21:58:34.498Z,27.16
2022-08-04T22:01:06.016Z,27.14
2022-08-04T22:03:52.263Z,27.08
2022-08-04T22:06:20.500Z,26.97
2022-08-04T22:08:55.163Z,26.92
2022-08-04T22:11:26.291Z,26.94
2022-08-04T22:14:11.950Z,27.00
2022-08-04T22:16:39.901Z,26.80
2022-08-04T22:19:07.235Z,26.81
2022-08-04T22:21:39.120Z,26.81
2022-08-04T22:24:13.776Z,26.58
2022-08-04T22:26:41.648Z,26.48
2022-08-04T22:29:14.510Z,26.49
2022-08-04T22:31:55.680Z,26.68
2022-08-04T22:34:23.831Z,26.56
2022-08-04T22:36:53.890Z,26.50
2022-08-04T22:39:23.477Z,26.48
2022-08-04T22:42:04.486Z,26.50
2022-08-04T22:44:33.532Z,26.30
2022-08-04T22:47:00.725Z,26.32
2022-08-04T22:49:31.478Z,26.19
2022-08-04T22:51:58.903Z,26.36
2022-08-04T22:54:28.503Z,26.34
2022-08-04T22:56:56.774Z,26.38
2022-08-04T22:59:23.851Z,26.34
2022-08-04T23:01:58.772Z,26.12
2022-08-04T23:04:29.056Z,26.16
2022-08-04T23:06:56.003Z,26.19
2022-08-04T23:09:27.024Z,26.07
2022-08-04T23:12:25.061Z,26.23
2022-08-04T23:14:52.450Z,25.94
2022-08-04T23:17:19.404Z,25.94
2022-08-04T23:19:58.111Z,26.07
2022-08-04T23:22:41.649Z,25.89
2022-08-04T23:25:16.385Z,25.93
2022-08-04T23:27:50.500Z,25.76
2022-08-04T23:30:19.609Z,25.74
2022-08-04T23:32:46.682Z,25.66
2022-08-04T23:35:15.096Z,25.57
2022-08-04T23:37:56.269Z,25.73
2022-08-04T23:40:34.116Z,25.86
2022-08-04T23:43:17.611Z,25.82
2022-08-04T23:46:08.295Z,25.71
2022-08-04T23:48:32.717Z,25.78
2022-08-04T23:51:03.506Z,25.56
2022-08-04T23:53:41.566Z,25.60
2022-08-04T23:56:19.946Z,25.47
2022-08-04T23:58:46.738Z,25.70
